sensor_id;sensor_type;location;lat;lon;timestamp;temperature;humidity
34815;DHT22;21030;53.912;15.214;2023-02-05T00:01:28;31.60;16.90
34815;DHT22;21030;53.912;15.214;2023-02-05T00:03:55;31.50;17.00
34815;DHT22;21030;53.912;15.214;2023-02-05T00:06:22;31.50;16.80
34815;DHT22;21030;53.912;15.214;2023-02-05T00:08:49;31.40;16.90
34815;DHT22;21030;53.912;15.214;2023-02-05T00:11:16;30.80;16.90
34815;DHT22;21030;53.912;15.214;2023-02-05T00:13:43;30.00;17.20
34815;DHT22;21030;53.912;15.214;2023-02-05T00:16:17;29.70;17.60
34815;DHT22;21030;53.912;15.214;2023-02-05T00:18:44;29.70;17.90
34815;DHT22;21030;53.912;15.214;2023-02-05T00:21:13;29.80;18.00
34815;DHT22;21030;53.912;15.214;2023-02-05T00:23:40;30.20;17.90
34815;DHT22;21030;53.912;15.214;2023-02-05T00:26:07;30.40;17.50
34815;DHT22;21030;53.912;15.214;2023-02-05T00:28:36;30.50;17.20
34815;DHT22;21030;53.912;15.214;2023-02-05T00:31:08;30.70;17.20
34815;DHT22;21030;53.912;15.214;2023-02-05T00:33:36;30.80;17.50
34815;DHT22;21030;53.912;15.214;2023-02-05T00:36:03;30.80;17.40
34815;DHT22;21030;53.912;15.214;2023-02-05T00:38:31;30.80;17.40
34815;DHT22;21030;53.912;15.214;2023-02-05T00:40:58;30.90;17.40
34815;DHT22;21030;53.912;15.214;2023-02-05T00:43:25;30.50;17.40
34815;DHT22;21030;53.912;15.214;2023-02-05T00:45:52;30.10;17.60
34815;DHT22;21030;53.912;15.214;2023-02-05T00:48:20;30.10;17.80
34815;DHT22;21030;53.912;15.214;2023-02-05T00:50:48;30.30;18.00
34815;DHT22;21030;53.912;15.214;2023-02-05T00:53:16;30.20;17.60
34815;DHT22;21030;53.912;15.214;2023-02-05T00:55:43;29.90;17.90
34815;DHT22;21030;53.912;15.214;2023-02-05T00:58:11;30.00;17.90
34815;DHT22;21030;53.912;15.214;2023-02-05T01:00:38;30.20;17.80
34815;DHT22;21030;53.912;15.214;2023-02-05T01:03:06;30.40;17.80
34815;DHT22;21030;53.912;15.214;2023-02-05T01:05:34;30.40;17.60
34815;DHT22;21030;53.912;15.214;2023-02-05T01:08:02;30.60;17.50
34815;DHT22;21030;53.912;15.214;2023-02-05T01:10:31;30.60;17.50
34815;DHT22;21030;53.912;15.214;2023-02-05T01:12:58;30.30;17.60
34815;DHT22;21030;53.912;15.214;2023-02-05T01:15:26;29.90;17.80
34815;DHT22;21030;53.912;15.214;2023-02-05T01:17:53;30.00;17.90
34815;DHT22;21030;53.912;15.214;2023-02-05T01:20:20;30.30;18.00
34815;DHT22;21030;53.912;15.214;2023-02-05T01:22:47;30.60;17.80
34815;DHT22;21030;53.912;15.214;2023-02-05T01:25:15;30.60;17.60
34815;DHT22;21030;53.912;15.214;2023-02-05T01:27:42;30.50;17.50
34815;DHT22;21030;53.912;15.214;2023-02-05T01:30:10;30.00;17.60
34815;DHT22;21030;53.912;15.214;2023-02-05T01:32:38;29.80;17.60
34815;DHT22;21030;53.912;15.214;2023-02-05T01:35:07;29.60;17.80
34815;DHT22;21030;53.912;15.214;2023-02-05T01:37:34;29.00;18.10
34815;DHT22;21030;53.912;15.214;2023-02-05T01:40:01;29.00;18.30
34815;DHT22;21030;53.912;15.214;2023-02-05T01:42:30;28.00;18.50
34815;DHT22;21030;53.912;15.214;2023-02-05T01:48:00;29.20;18.40
34815;DHT22;21030;53.912;15.214;2023-02-05T01:50:35;29.70;18.10
34815;DHT22;21030;53.912;15.214;2023-02-05T01:53:05;29.60;18.10
34815;DHT22;21030;53.912;15.214;2023-02-05T01:55:37;29.80;18.20
34815;DHT22;21030;53.912;15.214;2023-02-05T01:58:06;29.90;18.00
34815;DHT22;21030;53.912;15.214;2023-02-05T02:00:33;30.00;18.10
34815;DHT22;21030;53.912;15.214;2023-02-05T02:03:00;30.00;18.10
34815;DHT22;21030;53.912;15.214;2023-02-05T02:05:28;29.80;18.00
34815;DHT22;21030;53.912;15.214;2023-02-05T02:07:55;29.50;18.20
34815;DHT22;21030;53.912;15.214;2023-02-05T02:10:22;29.80;18.20
34815;DHT22;21030;53.912;15.214;2023-02-05T02:12:52;30.20;18.10
34815;DHT22;21030;53.912;15.214;2023-02-05T02:15:23;30.40;17.90
34815;DHT22;21030;53.912;15.214;2023-02-05T02:18:00;30.50;17.70
34815;DHT22;21030;53.912;15.214;2023-02-05T02:23:51;30.70;17.70
34815;DHT22;21030;53.912;15.214;2023-02-05T02:29:18;31.10;17.70
34815;DHT22;21030;53.912;15.214;2023-02-05T02:32:00;31.30;17.60
34815;DHT22;21030;53.912;15.214;2023-02-05T02:34:35;31.40;17.50
34815;DHT22;21030;53.912;15.214;2023-02-05T02:40:07;31.50;17.50
34815;DHT22;21030;53.912;15.214;2023-02-05T02:42:44;31.30;17.60
34815;DHT22;21030;53.912;15.214;2023-02-05T02:45:14;29.30;17.90
34815;DHT22;21030;53.912;15.214;2023-02-05T02:47:51;30.00;18.10
34815;DHT22;21030;53.912;15.214;2023-02-05T02:52:50;30.50;17.70
34815;DHT22;21030;53.912;15.214;2023-02-05T02:55:19;30.60;17.70
34815;DHT22;21030;53.912;15.214;2023-02-05T02:57:48;30.80;17.90
34815;DHT22;21030;53.912;15.214;2023-02-05T03:00:21;31.00;17.70
34815;DHT22;21030;53.912;15.214;2023-02-05T03:02:49;31.00;17.70
34815;DHT22;21030;53.912;15.214;2023-02-05T03:05:19;31.20;17.40
34815;DHT22;21030;53.912;15.214;2023-02-05T03:07:52;31.20;17.40
34815;DHT22;21030;53.912;15.214;2023-02-05T03:10:38;30.90;17.40
34815;DHT22;21030;53.912;15.214;2023-02-05T03:13:11;30.60;17.60
34815;DHT22;21030;53.912;15.214;2023-02-05T03:15:40;30.30;17.80
34815;DHT22;21030;53.912;15.214;2023-02-05T03:18:07;29.00;18.20
34815;DHT22;21030;53.912;15.214;2023-02-05T03:20:41;28.40;18.60
34815;DHT22;21030;53.912;15.214;2023-02-05T03:23:09;28.10;18.90
34815;DHT22;21030;53.912;15.214;2023-02-05T03:25:36;27.80;19.30
34815;DHT22;21030;53.912;15.214;2023-02-05T03:28:03;27.90;19.40
34815;DHT22;21030;53.912;15.214;2023-02-05T03:33:37;29.60;18.70
34815;DHT22;21030;53.912;15.214;2023-02-05T03:44:41;30.30;18.30
34815;DHT22;21030;53.912;15.214;2023-02-05T03:52:54;30.00;18.60
34815;DHT22;21030;53.912;15.214;2023-02-05T03:55:27;30.20;18.20
34815;DHT22;21030;53.912;15.214;2023-02-05T03:58:08;29.30;18.20
34815;DHT22;21030;53.912;15.214;2023-02-05T04:00:37;27.40;19.20
34815;DHT22;21030;53.912;15.214;2023-02-05T04:03:06;27.80;19.90
34815;DHT22;21030;53.912;15.214;2023-02-05T04:05:33;28.30;19.40
34815;DHT22;21030;53.912;15.214;2023-02-05T04:08:01;28.80;19.30
34815;DHT22;21030;53.912;15.214;2023-02-05T04:10:28;28.80;19.00
34815;DHT22;21030;53.912;15.214;2023-02-05T04:12:55;29.20;19.20
34815;DHT22;21030;53.912;15.214;2023-02-05T04:15:23;29.50;18.80
34815;DHT22;21030;53.912;15.214;2023-02-05T04:17:50;29.80;18.70
34815;DHT22;21030;53.912;15.214;2023-02-05T04:20:17;30.00;18.60
34815;DHT22;21030;53.912;15.214;2023-02-05T04:22:44;29.80;18.40
34815;DHT22;21030;53.912;15.214;2023-02-05T04:25:11;28.70;18.70
34815;DHT22;21030;53.912;15.214;2023-02-05T04:27:38;28.90;19.10
34815;DHT22;21030;53.912;15.214;2023-02-05T04:30:06;29.10;18.80
34815;DHT22;21030;53.912;15.214;2023-02-05T04:32:33;29.50;18.80
34815;DHT22;21030;53.912;15.214;2023-02-05T04:35:00;29.80;18.70
34815;DHT22;21030;53.912;15.214;2023-02-05T04:37:27;30.00;18.50
34815;DHT22;21030;53.912;15.214;2023-02-05T04:39:54;30.20;18.40
34815;DHT22;21030;53.912;15.214;2023-02-05T04:42:22;29.90;18.30
34815;DHT22;21030;53.912;15.214;2023-02-05T04:44:49;30.20;18.40
34815;DHT22;21030;53.912;15.214;2023-02-05T04:47:17;29.80;18.30
34815;DHT22;21030;53.912;15.214;2023-02-05T04:49:44;29.30;18.70
34815;DHT22;21030;53.912;15.214;2023-02-05T04:52:11;29.40;18.90
34815;DHT22;21030;53.912;15.214;2023-02-05T04:54:38;29.40;18.90
34815;DHT22;21030;53.912;15.214;2023-02-05T04:57:05;29.20;19.00
34815;DHT22;21030;53.912;15.214;2023-02-05T04:59:32;29.60;18.90
34815;DHT22;21030;53.912;15.214;2023-02-05T05:01:59;29.90;18.80
34815;DHT22;21030;53.912;15.214;2023-02-05T05:04:26;30.10;18.50
34815;DHT22;21030;53.912;15.214;2023-02-05T05:06:53;29.00;18.70
34815;DHT22;21030;53.912;15.214;2023-02-05T05:09:20;27.60;19.30
34815;DHT22;21030;53.912;15.214;2023-02-05T05:11:51;27.50;19.60
34815;DHT22;21030;53.912;15.214;2023-02-05T05:14:18;27.40;19.90
34815;DHT22;21030;53.912;15.214;2023-02-05T05:16:45;28.20;19.70
34815;DHT22;21030;53.912;15.214;2023-02-05T05:19:14;29.00;19.30
34815;DHT22;21030;53.912;15.214;2023-02-05T05:21:41;29.60;19.00
34815;DHT22;21030;53.912;15.214;2023-02-05T05:24:08;29.90;18.60
34815;DHT22;21030;53.912;15.214;2023-02-05T05:26:36;30.10;18.40
34815;DHT22;21030;53.912;15.214;2023-02-05T05:29:04;30.20;18.20
34815;DHT22;21030;53.912;15.214;2023-02-05T05:31:32;30.20;18.30
34815;DHT22;21030;53.912;15.214;2023-02-05T05:33:59;30.10;18.30
34815;DHT22;21030;53.912;15.214;2023-02-05T05:36:26;29.90;18.40
34815;DHT22;21030;53.912;15.214;2023-02-05T05:38:53;28.70;19.00
34815;DHT22;21030;53.912;15.214;2023-02-05T05:41:22;28.10;19.20
34815;DHT22;21030;53.912;15.214;2023-02-05T05:44:09;27.40;19.80
34815;DHT22;21030;53.912;15.214;2023-02-05T05:46:37;27.40;20.20
34815;DHT22;21030;53.912;15.214;2023-02-05T05:49:04;28.10;19.90
34815;DHT22;21030;53.912;15.214;2023-02-05T05:51:31;28.80;19.50
34815;DHT22;21030;53.912;15.214;2023-02-05T05:53:59;29.30;19.00
34815;DHT22;21030;53.912;15.214;2023-02-05T05:56:27;29.40;18.90
34815;DHT22;21030;53.912;15.214;2023-02-05T05:58:54;29.80;18.70
34815;DHT22;21030;53.912;15.214;2023-02-05T06:01:21;29.90;18.70
34815;DHT22;21030;53.912;15.214;2023-02-05T06:03:49;30.10;18.50
34815;DHT22;21030;53.912;15.214;2023-02-05T06:06:16;30.20;18.40
34815;DHT22;21030;53.912;15.214;2023-02-05T06:08:43;30.20;18.40
34815;DHT22;21030;53.912;15.214;2023-02-05T06:11:11;30.10;18.40
34815;DHT22;21030;53.912;15.214;2023-02-05T06:13:39;29.90;18.40
34815;DHT22;21030;53.912;15.214;2023-02-05T06:16:07;29.90;18.40
34815;DHT22;21030;53.912;15.214;2023-02-05T06:18:35;30.20;18.40
34815;DHT22;21030;53.912;15.214;2023-02-05T06:21:03;30.20;18.30
34815;DHT22;21030;53.912;15.214;2023-02-05T06:23:32;29.80;18.20
34815;DHT22;21030;53.912;15.214;2023-02-05T06:25:59;29.80;18.40
34815;DHT22;21030;53.912;15.214;2023-02-05T06:28:27;29.80;18.50
34815;DHT22;21030;53.912;15.214;2023-02-05T06:30:54;30.00;18.60
34815;DHT22;21030;53.912;15.214;2023-02-05T06:33:23;30.20;18.60
34815;DHT22;21030;53.912;15.214;2023-02-05T06:35:50;30.20;18.40
34815;DHT22;21030;53.912;15.214;2023-02-05T06:38:19;30.30;18.40
34815;DHT22;21030;53.912;15.214;2023-02-05T06:40:46;30.50;18.20
34815;DHT22;21030;53.912;15.214;2023-02-05T06:43:14;30.70;18.30
34815;DHT22;21030;53.912;15.214;2023-02-05T06:45:41;30.40;18.20
34815;DHT22;21030;53.912;15.214;2023-02-05T06:48:08;29.90;18.20
34815;DHT22;21030;53.912;15.214;2023-02-05T06:50:35;28.90;18.70
34815;DHT22;21030;53.912;15.214;2023-02-05T06:53:03;28.90;19.00
34815;DHT22;21030;53.912;15.214;2023-02-05T06:55:31;29.30;19.10
34815;DHT22;21030;53.912;15.214;2023-02-05T06:57:59;29.80;18.70
34815;DHT22;21030;53.912;15.214;2023-02-05T07:00:26;28.60;18.40
34815;DHT22;21030;53.912;15.214;2023-02-05T07:02:53;28.90;19.20
34815;DHT22;21030;53.912;15.214;2023-02-05T07:05:21;29.40;19.30
34815;DHT22;21030;53.912;15.214;2023-02-05T07:07:48;29.90;18.60
34815;DHT22;21030;53.912;15.214;2023-02-05T07:10:17;30.30;18.40
34815;DHT22;21030;53.912;15.214;2023-02-05T07:12:44;30.60;18.10
34815;DHT22;21030;53.912;15.214;2023-02-05T07:15:11;30.60;18.00
34815;DHT22;21030;53.912;15.214;2023-02-05T07:17:38;30.60;17.90
34815;DHT22;21030;53.912;15.214;2023-02-05T07:20:06;31.00;17.80
34815;DHT22;21030;53.912;15.214;2023-02-05T07:22:33;31.40;17.80
34815;DHT22;21030;53.912;15.214;2023-02-05T07:25:00;31.60;17.60
34815;DHT22;21030;53.912;15.214;2023-02-05T07:27:30;31.90;17.60
34815;DHT22;21030;53.912;15.214;2023-02-05T07:29:57;31.80;17.30
34815;DHT22;21030;53.912;15.214;2023-02-05T07:32:25;32.00;17.30
34815;DHT22;21030;53.912;15.214;2023-02-05T07:34:52;32.20;17.20
34815;DHT22;21030;53.912;15.214;2023-02-05T07:37:19;32.30;17.20
34815;DHT22;21030;53.912;15.214;2023-02-05T07:39:47;30.80;17.00
34815;DHT22;21030;53.912;15.214;2023-02-05T07:42:14;30.70;17.40
34815;DHT22;21030;53.912;15.214;2023-02-05T07:44:41;30.60;17.70
34815;DHT22;21030;53.912;15.214;2023-02-05T07:47:08;30.70;17.60
34815;DHT22;21030;53.912;15.214;2023-02-05T07:49:35;31.20;17.70
34815;DHT22;21030;53.912;15.214;2023-02-05T07:52:03;31.70;17.60
34815;DHT22;21030;53.912;15.214;2023-02-05T07:54:30;32.00;17.30
34815;DHT22;21030;53.912;15.214;2023-02-05T07:56:57;32.30;17.00
34815;DHT22;21030;53.912;15.214;2023-02-05T07:59:26;32.50;17.00
34815;DHT22;21030;53.912;15.214;2023-02-05T08:01:53;32.50;16.70
34815;DHT22;21030;53.912;15.214;2023-02-05T08:04:20;32.50;16.50
34815;DHT22;21030;53.912;15.214;2023-02-05T08:06:47;32.40;16.70
34815;DHT22;21030;53.912;15.214;2023-02-05T08:09:14;32.10;17.60
34815;DHT22;21030;53.912;15.214;2023-02-05T08:11:42;32.10;17.20
34815;DHT22;21030;53.912;15.214;2023-02-05T08:14:09;32.10;17.00
34815;DHT22;21030;53.912;15.214;2023-02-05T08:16:37;32.00;17.10
34815;DHT22;21030;53.912;15.214;2023-02-05T08:19:04;31.80;17.00
34815;DHT22;21030;53.912;15.214;2023-02-05T08:21:32;31.80;17.40
34815;DHT22;21030;53.912;15.214;2023-02-05T08:24:00;31.70;17.40
34815;DHT22;21030;53.912;15.214;2023-02-05T08:26:27;31.80;17.40
34815;DHT22;21030;53.912;15.214;2023-02-05T08:28:54;31.70;17.20
34815;DHT22;21030;53.912;15.214;2023-02-05T08:31:21;31.20;17.30
34815;DHT22;21030;53.912;15.214;2023-02-05T08:33:49;30.70;17.70
34815;DHT22;21030;53.912;15.214;2023-02-05T08:36:18;30.60;18.00
34815;DHT22;21030;53.912;15.214;2023-02-05T08:38:46;30.60;18.20
34815;DHT22;21030;53.912;15.214;2023-02-05T08:41:13;30.80;18.10
34815;DHT22;21030;53.912;15.214;2023-02-05T08:43:43;30.80;18.00
34815;DHT22;21030;53.912;15.214;2023-02-05T08:46:12;30.60;18.00
34815;DHT22;21030;53.912;15.214;2023-02-05T08:48:40;30.70;18.10
34815;DHT22;21030;53.912;15.214;2023-02-05T08:51:12;30.90;18.20
34815;DHT22;21030;53.912;15.214;2023-02-05T08:53:40;31.00;17.80
34815;DHT22;21030;53.912;15.214;2023-02-05T08:56:08;30.90;17.70
34815;DHT22;21030;53.912;15.214;2023-02-05T08:58:37;30.50;17.90
34815;DHT22;21030;53.912;15.214;2023-02-05T09:01:10;30.00;18.00
34815;DHT22;21030;53.912;15.214;2023-02-05T09:03:40;29.40;18.30
34815;DHT22;21030;53.912;15.214;2023-02-05T09:06:10;29.00;18.60
34815;DHT22;21030;53.912;15.214;2023-02-05T09:08:38;29.60;18.80
34815;DHT22;21030;53.912;15.214;2023-02-05T09:11:06;29.60;18.80
34815;DHT22;21030;53.912;15.214;2023-02-05T09:13:34;30.20;18.80
34815;DHT22;21030;53.912;15.214;2023-02-05T09:16:01;30.60;18.20
34815;DHT22;21030;53.912;15.214;2023-02-05T09:18:29;30.30;18.40
34815;DHT22;21030;53.912;15.214;2023-02-05T09:20:56;30.60;18.30
34815;DHT22;21030;53.912;15.214;2023-02-05T09:23:23;30.90;18.00
34815;DHT22;21030;53.912;15.214;2023-02-05T09:25:53;31.40;17.90
34815;DHT22;21030;53.912;15.214;2023-02-05T09:28:20;31.60;17.70
34815;DHT22;21030;53.912;15.214;2023-02-05T09:30:47;31.40;17.30
34815;DHT22;21030;53.912;15.214;2023-02-05T09:33:15;31.30;18.00
34815;DHT22;21030;53.912;15.214;2023-02-05T09:35:43;31.10;17.30
34815;DHT22;21030;53.912;15.214;2023-02-05T09:38:15;31.50;17.60
34815;DHT22;21030;53.912;15.214;2023-02-05T09:41:06;31.20;17.60
34815;DHT22;21030;53.912;15.214;2023-02-05T09:46:55;30.80;17.90
34815;DHT22;21030;53.912;15.214;2023-02-05T09:49:37;31.00;17.50
34815;DHT22;21030;53.912;15.214;2023-02-05T09:52:19;31.10;17.70
34815;DHT22;21030;53.912;15.214;2023-02-05T09:54:55;31.60;17.50
34815;DHT22;21030;53.912;15.214;2023-02-05T09:57:33;31.80;17.40
34815;DHT22;21030;53.912;15.214;2023-02-05T10:00:03;31.60;17.30
34815;DHT22;21030;53.912;15.214;2023-02-05T10:02:46;31.90;17.20
34815;DHT22;21030;53.912;15.214;2023-02-05T10:05:21;32.00;17.20
34815;DHT22;21030;53.912;15.214;2023-02-05T10:08:30;32.20;17.30
34815;DHT22;21030;53.912;15.214;2023-02-05T10:11:03;32.50;17.20
34815;DHT22;21030;53.912;15.214;2023-02-05T10:13:38;32.50;17.20
34815;DHT22;21030;53.912;15.214;2023-02-05T10:32:20;31.90;17.50
34815;DHT22;21030;53.912;15.214;2023-02-05T10:37:35;33.70;16.80
34815;DHT22;21030;53.912;15.214;2023-02-05T10:40:16;34.10;16.30
34815;DHT22;21030;53.912;15.214;2023-02-05T10:43:21;34.30;16.70
34815;DHT22;21030;53.912;15.214;2023-02-05T10:45:54;35.00;16.20
34815;DHT22;21030;53.912;15.214;2023-02-05T10:48:43;34.30;16.00
34815;DHT22;21030;53.912;15.214;2023-02-05T10:51:12;33.40;16.40
34815;DHT22;21030;53.912;15.214;2023-02-05T10:53:41;32.80;16.70
34815;DHT22;21030;53.912;15.214;2023-02-05T10:56:15;32.70;17.30
34815;DHT22;21030;53.912;15.214;2023-02-05T11:01:20;33.30;17.20
34815;DHT22;21030;53.912;15.214;2023-02-05T11:04:12;33.30;17.10
34815;DHT22;21030;53.912;15.214;2023-02-05T11:06:46;34.30;17.00
34815;DHT22;21030;53.912;15.214;2023-02-05T11:11:54;35.50;15.60
34815;DHT22;21030;53.912;15.214;2023-02-05T11:14:35;35.40;16.10
34815;DHT22;21030;53.912;15.214;2023-02-05T11:19:37;35.40;15.80
34815;DHT22;21030;53.912;15.214;2023-02-05T11:22:08;34.40;16.00
34815;DHT22;21030;53.912;15.214;2023-02-05T11:24:49;34.80;16.50
34815;DHT22;21030;53.912;15.214;2023-02-05T11:28:17;35.60;15.90
34815;DHT22;21030;53.912;15.214;2023-02-05T11:30:36;35.20;15.70
34815;DHT22;21030;53.912;15.214;2023-02-05T11:33:24;34.70;15.70
34815;DHT22;21030;53.912;15.214;2023-02-05T11:35:58;35.50;15.90
34815;DHT22;21030;53.912;15.214;2023-02-05T11:38:44;35.60;16.10
34815;DHT22;21030;53.912;15.214;2023-02-05T11:41:28;34.40;15.20
34815;DHT22;21030;53.912;15.214;2023-02-05T11:43:58;35.30;15.80
34815;DHT22;21030;53.912;15.214;2023-02-05T11:46:30;35.30;15.80
34815;DHT22;21030;53.912;15.214;2023-02-05T11:49:01;34.70;15.40
34815;DHT22;21030;53.912;15.214;2023-02-05T11:59:31;34.90;15.60
34815;DHT22;21030;53.912;15.214;2023-02-05T12:04:48;34.40;16.00
34815;DHT22;21030;53.912;15.214;2023-02-05T12:07:18;33.90;15.60
34815;DHT22;21030;53.912;15.214;2023-02-05T12:09:47;32.70;16.10
34815;DHT22;21030;53.912;15.214;2023-02-05T12:12:20;32.40;16.60
34815;DHT22;21030;53.912;15.214;2023-02-05T12:15:15;31.80;16.90
34815;DHT22;21030;53.912;15.214;2023-02-05T12:21:03;31.20;17.20
34815;DHT22;21030;53.912;15.214;2023-02-05T12:23:44;31.30;17.80
34815;DHT22;21030;53.912;15.214;2023-02-05T12:26:37;31.40;17.00
34815;DHT22;21030;53.912;15.214;2023-02-05T12:29:14;31.50;17.20
34815;DHT22;21030;53.912;15.214;2023-02-05T12:37:56;31.50;16.80
34815;DHT22;21030;53.912;15.214;2023-02-05T12:43:36;32.40;16.90
34815;DHT22;21030;53.912;15.214;2023-02-05T12:57:23;30.90;17.00
34815;DHT22;21030;53.912;15.214;2023-02-05T12:59:59;30.30;17.10
34815;DHT22;21030;53.912;15.214;2023-02-05T13:02:57;31.00;17.70
34815;DHT22;21030;53.912;15.214;2023-02-05T13:05:47;31.90;17.10
34815;DHT22;21030;53.912;15.214;2023-02-05T13:16:35;30.00;17.90
34815;DHT22;21030;53.912;15.214;2023-02-05T13:19:36;30.70;17.50
34815;DHT22;21030;53.912;15.214;2023-02-05T13:22:20;31.00;17.00
34815;DHT22;21030;53.912;15.214;2023-02-05T13:31:27;31.80;16.70
34815;DHT22;21030;53.912;15.214;2023-02-05T13:34:02;31.00;16.90
34815;DHT22;21030;53.912;15.214;2023-02-05T13:58:30;28.90;18.60
34815;DHT22;21030;53.912;15.214;2023-02-05T14:01:03;30.30;18.40
34815;DHT22;21030;53.912;15.214;2023-02-05T14:03:39;31.20;17.50
34815;DHT22;21030;53.912;15.214;2023-02-05T14:06:22;30.10;16.90
34815;DHT22;21030;53.912;15.214;2023-02-05T14:08:59;29.60;17.50
34815;DHT22;21030;53.912;15.214;2023-02-05T14:11:28;29.30;17.50
34815;DHT22;21030;53.912;15.214;2023-02-05T14:16:44;29.40;18.20
34815;DHT22;21030;53.912;15.214;2023-02-05T14:19:20;30.10;17.80
34815;DHT22;21030;53.912;15.214;2023-02-05T14:22:08;30.60;16.90
34815;DHT22;21030;53.912;15.214;2023-02-05T14:24:44;30.40;17.80
34815;DHT22;21030;53.912;15.214;2023-02-05T14:27:45;30.20;17.10
34815;DHT22;21030;53.912;15.214;2023-02-05T14:33:01;30.60;17.70
34815;DHT22;21030;53.912;15.214;2023-02-05T14:35:32;31.50;17.10
34815;DHT22;21030;53.912;15.214;2023-02-05T14:38:01;32.20;16.70
34815;DHT22;21030;53.912;15.214;2023-02-05T14:40:40;31.60;16.90
34815;DHT22;21030;53.912;15.214;2023-02-05T14:43:20;31.70;16.80
34815;DHT22;21030;53.912;15.214;2023-02-05T14:45:50;31.40;16.90
34815;DHT22;21030;53.912;15.214;2023-02-05T14:48:24;30.00;17.40
34815;DHT22;21030;53.912;15.214;2023-02-05T14:51:07;29.10;17.90
34815;DHT22;21030;53.912;15.214;2023-02-05T14:53:36;29.10;18.50
34815;DHT22;21030;53.912;15.214;2023-02-05T14:56:04;29.20;18.20
34815;DHT22;21030;53.912;15.214;2023-02-05T14:58:33;29.20;18.40
34815;DHT22;21030;53.912;15.214;2023-02-05T15:01:39;28.80;18.70
34815;DHT22;21030;53.912;15.214;2023-02-05T15:04:50;28.30;19.00
34815;DHT22;21030;53.912;15.214;2023-02-05T15:07:36;28.40;19.10
34815;DHT22;21030;53.912;15.214;2023-02-05T15:10:15;27.40;19.10
34815;DHT22;21030;53.912;15.214;2023-02-05T15:15:34;27.10;19.40
34815;DHT22;21030;53.912;15.214;2023-02-05T15:18:42;26.80;19.90
34815;DHT22;21030;53.912;15.214;2023-02-05T15:21:01;27.00;19.70
34815;DHT22;21030;53.912;15.214;2023-02-05T15:23:59;27.20;19.70
34815;DHT22;21030;53.912;15.214;2023-02-05T15:26:44;27.60;19.40
34815;DHT22;21030;53.912;15.214;2023-02-05T15:31:57;27.90;19.10
34815;DHT22;21030;53.912;15.214;2023-02-05T15:34:36;27.60;19.30
34815;DHT22;21030;53.912;15.214;2023-02-05T15:37:05;26.90;19.20
34815;DHT22;21030;53.912;15.214;2023-02-05T15:40:02;27.00;19.50
34815;DHT22;21030;53.912;15.214;2023-02-05T15:42:35;26.70;19.50
34815;DHT22;21030;53.912;15.214;2023-02-05T15:48:04;27.50;19.50
34815;DHT22;21030;53.912;15.214;2023-02-05T15:50:34;28.50;19.00
34815;DHT22;21030;53.912;15.214;2023-02-05T15:53:02;28.60;18.60
34815;DHT22;21030;53.912;15.214;2023-02-05T15:55:30;28.60;18.80
34815;DHT22;21030;53.912;15.214;2023-02-05T15:58:03;29.10;18.60
34815;DHT22;21030;53.912;15.214;2023-02-05T16:00:33;29.40;18.30
34815;DHT22;21030;53.912;15.214;2023-02-05T16:03:03;29.60;18.30
34815;DHT22;21030;53.912;15.214;2023-02-05T16:05:31;29.80;18.20
34815;DHT22;21030;53.912;15.214;2023-02-05T16:07:58;29.90;18.00
34815;DHT22;21030;53.912;15.214;2023-02-05T16:10:32;29.40;17.90
34815;DHT22;21030;53.912;15.214;2023-02-05T16:13:05;29.00;18.30
34815;DHT22;21030;53.912;15.214;2023-02-05T16:15:34;29.30;18.50
34815;DHT22;21030;53.912;15.214;2023-02-05T16:18:05;29.60;18.40
34815;DHT22;21030;53.912;15.214;2023-02-05T16:20:39;29.40;18.40
34815;DHT22;21030;53.912;15.214;2023-02-05T16:23:24;29.40;18.50
34815;DHT22;21030;53.912;15.214;2023-02-05T16:26:01;29.60;18.50
34815;DHT22;21030;53.912;15.214;2023-02-05T16:31:07;29.70;18.20
34815;DHT22;21030;53.912;15.214;2023-02-05T16:33:58;29.70;18.30
34815;DHT22;21030;53.912;15.214;2023-02-05T16:36:31;29.50;18.20
34815;DHT22;21030;53.912;15.214;2023-02-05T16:39:01;29.50;18.40
34815;DHT22;21030;53.912;15.214;2023-02-05T16:41:36;29.60;18.30
34815;DHT22;21030;53.912;15.214;2023-02-05T16:44:05;29.60;18.20
34815;DHT22;21030;53.912;15.214;2023-02-05T16:46:34;29.80;18.10
34815;DHT22;21030;53.912;15.214;2023-02-05T16:56:49;29.30;18.70
34815;DHT22;21030;53.912;15.214;2023-02-05T16:59:22;29.50;18.30
34815;DHT22;21030;53.912;15.214;2023-02-05T17:01:50;29.40;18.30
34815;DHT22;21030;53.912;15.214;2023-02-05T17:04:21;28.70;18.70
34815;DHT22;21030;53.912;15.214;2023-02-05T17:06:53;28.20;18.90
34815;DHT22;21030;53.912;15.214;2023-02-05T17:09:36;28.20;19.20
34815;DHT22;21030;53.912;15.214;2023-02-05T17:12:23;28.40;18.80
34815;DHT22;21030;53.912;15.214;2023-02-05T17:17:20;28.30;19.00
34815;DHT22;21030;53.912;15.214;2023-02-05T17:22:36;27.70;19.30
34815;DHT22;21030;53.912;15.214;2023-02-05T17:25:03;26.70;19.80
34815;DHT22;21030;53.912;15.214;2023-02-05T17:27:38;26.90;20.10
34815;DHT22;21030;53.912;15.214;2023-02-05T17:30:13;26.90;20.10
34815;DHT22;21030;53.912;15.214;2023-02-05T17:32:41;27.30;19.80
34815;DHT22;21030;53.912;15.214;2023-02-05T17:35:19;27.50;19.60
34815;DHT22;21030;53.912;15.214;2023-02-05T17:37:52;27.50;19.70
34815;DHT22;21030;53.912;15.214;2023-02-05T17:40:20;27.50;19.40
34815;DHT22;21030;53.912;15.214;2023-02-05T17:42:47;27.70;19.60
34815;DHT22;21030;53.912;15.214;2023-02-05T17:45:29;28.30;19.30
34815;DHT22;21030;53.912;15.214;2023-02-05T17:47:57;28.00;19.30
34815;DHT22;21030;53.912;15.214;2023-02-05T17:50:26;27.20;19.80
34815;DHT22;21030;53.912;15.214;2023-02-05T17:52:53;26.50;20.20
34815;DHT22;21030;53.912;15.214;2023-02-05T17:55:21;26.50;20.40
34815;DHT22;21030;53.912;15.214;2023-02-05T17:57:48;26.30;20.60
34815;DHT22;21030;53.912;15.214;2023-02-05T18:00:23;26.90;20.20
34815;DHT22;21030;53.912;15.214;2023-02-05T18:02:51;27.10;20.10
34815;DHT22;21030;53.912;15.214;2023-02-05T18:05:19;26.70;20.20
34815;DHT22;21030;53.912;15.214;2023-02-05T18:07:53;26.70;20.20
34815;DHT22;21030;53.912;15.214;2023-02-05T18:10:29;26.30;20.00
34815;DHT22;21030;53.912;15.214;2023-02-05T18:12:59;26.20;20.30
34815;DHT22;21030;53.912;15.214;2023-02-05T18:15:28;25.80;20.60
34815;DHT22;21030;53.912;15.214;2023-02-05T18:17:57;25.40;21.10
34815;DHT22;21030;53.912;15.214;2023-02-05T18:20:24;25.50;21.40
34815;DHT22;21030;53.912;15.214;2023-02-05T18:22:51;26.00;21.00
34815;DHT22;21030;53.912;15.214;2023-02-05T18:25:19;26.70;20.40